Date,TemperatureHighF,TemperatureAvgF,TemperatureLowF,DewpointHighF,DewpointAvgF,DewpointLowF,HumidityHigh,HumidityAvg,HumidityLow,PressureMaxIn,PressureMinIn,WindSpeedMaxMPH,WindSpeedAvgMPH,GustSpeedMaxMPH,PrecipitationSumIn
2013-2-1,41.4,40.6,40.3,7.1,6.6,6.3,24,24,24,29.84,29.82,16,16,16,0.12
2013-2-2,44.8,41.4,34.2,37.1,22.2,7.0,83,51,22,29.98,29.59,9,3,13,0.07
2013-2-3,51.6,43.4,30.7,40.1,28.7,21.1,85,58,36,29.65,29.53,18,5,18,0.01
2013-2-4,52.0,39.5,25.2,29.2,21.8,16.0,78,52,26,29.81,29.65,13,4,13,0.00
2013-2-5,62.8,48.0,37.4,34.9,31.9,25.8,84,56,30,29.68,29.54,15,4,15,0.00
2013-2-6,64.8,47.7,30.0,36.2,29.0,22.1,90,55,22,29.96,29.63,15,4,15,0.00
2013-2-7,51.6,43.9,37.0,43.3,38.1,32.4,94,81,64,30.00,29.64,13,4,13,0.26
2013-2-8,56.7,47.3,42.3,45.1,40.3,27.5,96,78,48,29.70,29.43,24,11,24,0.63
2013-2-9,53.2,41.1,28.2,29.2,21.7,14.9,77,50,23,30.02,29.69,20,5,20,0.00
2013-2-10,54.0,41.6,26.8,38.5,23.3,16.7,78,51,25,30.16,29.88,16,4,16,0.01
2013-2-11,63.5,57.2,44.6,60.4,53.7,38.8,97,88,79,29.89,29.59,18,6,18,0.05
2013-2-12,66.9,55.6,48.4,53.7,36.3,20.5,90,54,21,29.88,29.58,21,5,21,0.00
2013-2-13,48.9,47.2,44.8,48.0,45.0,36.3,98,92,70,29.63,29.29,18,4,18,0.28
2013-2-14,56.3,43.6,30.7,41.1,33.5,27.6,94,69,45,29.84,29.49,13,3,13,0.00
2013-2-15,68.0,46.6,29.3,40.6,33.0,27.0,94,64,28,29.76,29.59,14,2,53,0.00
2013-2-16,46.8,38.3,31.1,36.7,33.5,29.8,95,84,60,29.63,29.48,16,6,16,0.26
2013-2-17,37.9,30.9,22.5,29.9,12.2,1.4,95,51,22,29.94,29.56,30,9,30,0.17
2013-2-18,54.5,36.7,17.6,26.6,17.2,10.8,83,50,21,30.09,29.94,14,3,14,0.02
2013-2-19,55.4,45.5,34.3,51.7,39.4,24.3,94,80,61,29.94,29.52,20,6,20,0.12
2013-2-20,54.9,43.6,29.5,40.9,20.5,13.2,95,44,21,30.06,29.62,20,6,20,0.00
2013-2-21,54.9,42.5,24.8,28.7,17.8,11.0,77,40,21,30.10,29.78,16,4,16,0.00
2013-2-22,45.3,37.3,32.5,37.0,31.4,21.1,97,81,44,30.02,29.80,10,3,10,0.33
2013-2-23,44.8,41.1,37.2,43.4,40.1,35.4,98,96,93,29.80,29.48,12,4,12,0.41
2013-2-24,64.9,51.2,40.5,47.4,39.6,29.9,98,69,32,29.70,29.45,18,5,18,0.04
2013-2-25,44.8,39.1,33.4,30.9,24.6,19.7,68,56,44,29.90,29.70,15,4,15,0.00
2013-2-26,70.2,47.2,36.3,59.7,43.2,25.0,98,86,62,29.81,29.23,22,6,22,0.81
2013-2-27,62.1,48.9,38.3,46.9,41.4,35.3,95,78,40,29.44,29.28,13,3,13,0.00
2013-2-28,50.7,41.3,33.1,37.7,29.1,24.6,93,64,39,29.52,29.36,20,4,20,0.00